Time;durP1;ratioP1;P1;durP2;ratioP2;P2;SDS_P1;SDS_P2;PMS_P1;PMS_P2;Temp;Humidity;BMP_temperature;BMP_pressure;BME280_temperature;BME280_humidity;BME280_pressure;Samples;Min_cycle;Max_cycle;Signal;HPM_P1;HPM_P2
2023/12/08 00:02:25;;;;;;;15.68;6.45;;;3.80;99.90;;;;;;5032820;28;20033;-56
2023/12/08 00:04:50;;;;;;;10.93;6.00;;;3.70;99.90;;;;;;5032672;28;20048;-59
2023/12/08 00:07:16;;;;;;;16.10;7.22;;;3.70;99.90;;;;;;5032426;28;20367;-56
2023/12/08 00:09:42;;;;;;;18.00;8.40;;;3.80;99.90;;;;;;5032749;28;20108;-71
2023/12/08 00:12:08;;;;;;;17.98;7.75;;;3.80;99.90;;;;;;5032366;28;20025;-56
2023/12/08 00:14:33;;;;;;;15.02;7.13;;;3.80;99.90;;;;;;5025497;28;20129;-59
2023/12/08 00:16:59;;;;;;;16.17;7.40;;;3.80;99.90;;;;;;5028002;28;20372;-55
2023/12/08 00:19:25;;;;;;;15.30;7.60;;;3.80;99.90;;;;;;5031910;28;20383;-55
2023/12/08 00:21:50;;;;;;;13.10;7.97;;;3.80;99.90;;;;;;5032355;28;20026;-56
2023/12/08 00:24:16;;;;;;;17.67;7.13;;;3.70;99.90;;;;;;5032348;28;20076;-57
2023/12/08 00:26:42;;;;;;;13.93;7.05;;;3.60;99.90;;;;;;5032550;28;20030;-55
2023/12/08 00:29:08;;;;;;;13.85;6.72;;;3.50;99.90;;;;;;5032577;28;20112;-57
2023/12/08 00:31:33;;;;;;;20.67;7.63;;;3.40;99.90;;;;;;5032516;28;20399;-56
2023/12/08 00:33:59;;;;;;;17.05;7.65;;;3.40;99.90;;;;;;5032328;28;20028;-57
2023/12/08 00:36:25;;;;;;;20.85;8.65;;;3.40;99.90;;;;;;5032448;28;20025;-56
2023/12/08 00:38:50;;;;;;;15.88;7.35;;;3.30;99.90;;;;;;5032487;28;20029;-56
2023/12/08 00:41:16;;;;;;;20.08;7.75;;;3.30;99.90;;;;;;5031033;28;20014;-57
2023/12/08 00:43:42;;;;;;;14.93;7.63;;;3.30;99.90;;;;;;5032358;28;20147;-55
2023/12/08 00:46:09;;;;;;;22.77;9.38;;;3.30;99.90;;;;;;5032088;28;20021;-56
2023/12/08 00:48:35;;;;;;;19.20;8.53;;;3.40;99.90;;;;;;5033288;28;20017;-56
2023/12/08 00:51:00;;;;;;;20.38;8.52;;;3.40;99.90;;;;;;5036149;28;20028;-55
2023/12/08 00:53:26;;;;;;;17.85;7.72;;;3.40;99.90;;;;;;5036276;28;20024;-55
2023/12/08 00:55:51;;;;;;;17.88;8.50;;;3.50;99.90;;;;;;5036179;28;20032;-57
2023/12/08 00:58:17;;;;;;;23.85;8.63;;;3.50;99.90;;;;;;5036028;28;20097;-58
2023/12/08 01:00:43;;;;;;;19.33;8.68;;;3.60;99.90;;;;;;5036116;28;20398;-55
2023/12/08 01:03:09;;;;;;;20.92;8.77;;;3.60;99.90;;;;;;5036022;28;20018;-56
2023/12/08 01:05:35;;;;;;;15.48;7.70;;;3.60;99.90;;;;;;5035948;28;20472;-54
2023/12/08 01:08:01;;;;;;;17.92;7.85;;;3.60;99.90;;;;;;5034569;28;20022;-55
2023/12/08 01:10:26;;;;;;;17.83;8.32;;;3.70;99.90;;;;;;5030389;28;20089;-57
2023/12/08 01:12:52;;;;;;;16.55;7.60;;;3.70;99.90;;;;;;5016134;28;20097;-57
2023/12/08 01:15:18;;;;;;;21.50;8.75;;;3.70;99.90;;;;;;5021444;28;20036;-56
2023/12/08 01:17:43;;;;;;;17.42;8.80;;;3.80;99.90;;;;;;5034519;28;20443;-57
2023/12/08 01:20:09;;;;;;;19.58;9.68;;;3.80;99.90;;;;;;5035866;28;20104;-56
2023/12/08 01:22:35;;;;;;;20.50;8.15;;;3.70;99.90;;;;;;5034503;28;20445;-57
2023/12/08 01:25:02;;;;;;;21.88;8.45;;;3.70;99.90;;;;;;5035545;28;20022;-58
2023/12/08 01:27:27;;;;;;;21.85;8.90;;;3.70;99.90;;;;;;5034302;28;20026;-57
2023/12/08 01:29:53;;;;;;;18.27;7.72;;;3.80;99.90;;;;;;5035600;28;20036;-57
2023/12/08 01:32:19;;;;;;;15.20;8.40;;;3.80;99.90;;;;;;5035424;28;20024;-58
2023/12/08 01:34:44;;;;;;;23.10;10.13;;;3.80;99.90;;;;;;5035773;28;20021;-54
2023/12/08 01:37:10;;;;;;;24.38;8.80;;;3.80;99.90;;;;;;5034154;28;20021;-58
2023/12/08 01:39:36;;;;;;;14.70;7.72;;;3.90;99.90;;;;;;5035395;28;20018;-58
2023/12/08 01:42:03;;;;;;;20.52;7.53;;;3.90;99.90;;;;;;5035205;28;20072;-64
2023/12/08 01:44:29;;;;;;;14.97;6.50;;;3.90;99.90;;;;;;5035640;28;20502;-58
2023/12/08 01:46:54;;;;;;;17.42;8.30;;;4.00;99.90;;;;;;5035227;28;20025;-53
2023/12/08 01:49:20;;;;;;;23.48;9.02;;;4.00;99.90;;;;;;5035362;28;20036;-50
2023/12/08 01:51:46;;;;;;;24.00;9.80;;;4.00;99.90;;;;;;5035238;28;20026;-46
2023/12/08 01:54:14;;;;;;;19.70;7.55;;;4.00;99.90;;;;;;5035180;28;20021;-46
2023/12/08 01:56:40;;;;;;;21.42;8.18;;;4.00;99.90;;;;;;5034960;28;20475;-47
2023/12/08 01:59:08;;;;;;;20.98;8.52;;;4.00;99.90;;;;;;5033699;28;20033;-58
2023/12/08 02:01:34;;;;;;;;;;;4.00;99.90;;;;;;5034668;28;20483;-45
2023/12/08 02:04:01;;;;;;;16.55;8.15;;;4.00;99.90;;;;;;5034834;28;19959;-51
2023/12/08 02:06:27;;;;;;;18.40;8.50;;;4.10;99.90;;;;;;5033899;28;20504;-52
2023/12/08 02:08:53;;;;;;;17.98;9.02;;;4.10;99.90;;;;;;5034654;28;20033;-52
2023/12/08 02:11:20;;;;;;;22.30;8.82;;;4.00;99.90;;;;;;5022260;28;20109;-50
2023/12/08 02:13:46;;;;;;;18.55;8.95;;;4.00;99.90;;;;;;5015806;28;20030;-49
2023/12/08 02:16:18;;;;;;;25.98;9.60;;;4.00;99.90;;;;;;5034523;28;20141;-46
2023/12/08 02:18:44;;;;;;;20.42;8.90;;;4.00;99.90;;;;;;5034999;28;20083;-51
2023/12/08 02:21:13;;;;;;;25.77;9.48;;;4.00;99.90;;;;;;5034677;28;20022;-53
2023/12/08 02:23:46;;;;;;;16.20;7.03;;;3.90;99.90;;;;;;5034390;28;20075;-55
2023/12/08 02:26:12;;;;;;;16.27;7.30;;;3.80;99.90;;;;;;5033378;28;20506;-54
2023/12/08 02:28:37;;;;;;;21.23;8.50;;;3.70;99.90;;;;;;5034520;28;20055;-56
2023/12/08 02:31:09;;;;;;;19.30;8.63;;;3.70;99.90;;;;;;5034170;28;20094;-58
2023/12/08 02:33:37;;;;;;;21.52;8.30;;;3.60;99.90;;;;;;5034460;28;20495;-64
2023/12/08 02:36:04;;;;;;;17.13;7.97;;;3.50;99.90;;;;;;5034360;28;20026;-45
2023/12/08 02:38:33;;;;;;;22.30;8.90;;;3.50;99.90;;;;;;5034431;28;20079;-45
2023/12/08 02:40:59;;;;;;;18.80;7.93;;;3.40;99.90;;;;;;5034145;28;20467;-44
2023/12/08 02:43:24;;;;;;;19.13;8.05;;;3.40;99.90;;;;;;5033153;28;20498;-45
2023/12/08 02:45:50;;;;;;;25.55;8.32;;;3.40;99.90;;;;;;5034221;28;20126;-41
2023/12/08 02:48:16;;;;;;;15.63;7.65;;;3.40;99.90;;;;;;5033855;28;20483;-46
2023/12/08 02:50:42;;;;;;;20.63;8.95;;;3.30;99.90;;;;;;5034078;28;20022;-46
2023/12/08 02:53:08;;;;;;;23.30;8.77;;;3.30;99.90;;;;;;5031147;28;20026;-43
2023/12/08 02:55:34;;;;;;;20.15;9.75;;;3.40;99.90;;;;;;5030951;28;20152;-55
2023/12/08 02:58:00;;;;;;;20.45;8.88;;;3.40;99.90;;;;;;5033684;28;20453;-55
2023/12/08 03:00:26;;;;;;;18.02;8.13;;;3.30;99.90;;;;;;5034032;28;20021;-56
2023/12/08 03:02:51;;;;;;;22.30;9.23;;;3.30;99.90;;;;;;5033947;28;20025;-55
2023/12/08 03:05:20;;;;;;;19.95;8.18;;;3.30;99.90;;;;;;5033638;28;20443;-60
2023/12/08 03:07:46;;;;;;;18.98;8.43;;;3.30;99.90;;;;;;5033659;28;20022;-55
2023/12/08 03:10:13;;;;;;;17.67;8.23;;;3.20;99.90;;;;;;5033621;28;20021;-52
2023/12/08 03:12:38;;;;;;;19.60;9.15;;;3.20;99.90;;;;;;5034036;28;20474;-55
2023/12/08 03:15:04;;;;;;;15.57;8.32;;;3.10;99.90;;;;;;5033608;28;20097;-46
2023/12/08 03:17:30;;;;;;;19.20;8.52;;;3.10;99.90;;;;;;5033373;28;20584;-57
2023/12/08 03:19:56;;;;;;;19.05;7.97;;;3.10;99.90;;;;;;5032240;28;20018;-68
2023/12/08 03:22:22;;;;;;;24.80;8.40;;;3.10;99.90;;;;;;5033620;28;20052;-53
2023/12/08 03:24:47;;;;;;;18.02;7.88;;;3.10;99.90;;;;;;5033297;28;20429;-53
2023/12/08 03:27:13;;;;;;;18.27;8.43;;;3.20;99.90;;;;;;5033448;28;20048;-55
2023/12/08 03:29:40;;;;;;;17.60;8.30;;;3.20;99.90;;;;;;5033624;28;20359;-56
2023/12/08 03:32:06;;;;;;;14.27;7.68;;;3.20;99.90;;;;;;5028135;28;20018;-55
2023/12/08 03:34:32;;;;;;;23.05;9.65;;;3.30;99.90;;;;;;4988908;28;20168;-53
2023/12/08 03:36:58;;;;;;;19.33;9.07;;;3.20;99.90;;;;;;5016355;28;20100;-57
2023/12/08 03:39:23;;;;;;;20.30;8.70;;;3.30;99.90;;;;;;5031129;28;20029;-54
2023/12/08 03:41:49;;;;;;;17.95;8.15;;;3.30;99.90;;;;;;5033132;28;20021;-55
2023/12/08 03:44:15;;;;;;;17.25;7.75;;;3.30;99.90;;;;;;5033160;28;20030;-54
2023/12/08 03:46:44;;;;;;;22.45;10.10;;;3.30;99.90;;;;;;5033009;28;20037;-58
2023/12/08 03:49:10;;;;;;;17.95;8.73;;;3.40;99.90;;;;;;5032572;28;20031;-54
2023/12/08 03:51:35;;;;;;;19.85;8.73;;;3.40;99.90;;;;;;5032683;28;20025;-53
2023/12/08 03:54:01;;;;;;;18.17;7.35;;;3.40;99.90;;;;;;5033304;28;20147;-54
2023/12/08 03:56:27;;;;;;;23.33;8.63;;;3.40;99.90;;;;;;5013625;28;20030;-54
2023/12/08 03:58:53;;;;;;;18.40;7.80;;;3.40;99.90;;;;;;5025225;28;20029;-54
2023/12/08 04:01:19;;;;;;;14.52;7.15;;;3.40;99.90;;;;;;5032659;28;20018;-57
2023/12/08 04:03:45;;;;;;;15.85;7.68;;;3.40;99.90;;;;;;5032728;28;20492;-60
2023/12/08 04:06:11;;;;;;;19.55;8.30;;;3.40;99.90;;;;;;5027491;28;20064;-55
2023/12/08 04:08:37;;;;;;;17.90;8.75;;;3.40;99.90;;;;;;5031720;28;20476;-54
2023/12/08 04:11:03;;;;;;;19.05;8.10;;;3.40;99.90;;;;;;5032702;28;20039;-55
2023/12/08 04:13:29;;;;;;;19.73;7.90;;;3.50;99.90;;;;;;5032777;28;20487;-56
2023/12/08 04:15:54;;;;;;;16.33;7.68;;;3.50;99.90;;;;;;5030979;28;20032;-55
2023/12/08 04:18:20;;;;;;;18.70;7.57;;;3.50;99.90;;;;;;5032801;28;20391;-55
2023/12/08 04:20:46;;;;;;;23.67;8.82;;;3.50;99.90;;;;;;5032405;28;20025;-54
2023/12/08 04:23:12;;;;;;;17.80;8.02;;;3.50;99.90;;;;;;5033829;28;20446;-55
2023/12/08 04:25:37;;;;;;;22.73;9.95;;;3.50;99.90;;;;;;5038048;28;20114;-56
2023/12/08 04:28:04;;;;;;;20.23;7.97;;;3.50;99.90;;;;;;5037665;28;20029;-56
2023/12/08 04:30:30;;;;;;;17.08;8.88;;;3.50;99.90;;;;;;5039443;28;20499;-54
2023/12/08 04:32:56;;;;;;;25.85;9.35;;;3.50;99.90;;;;;;5039106;28;20475;-54
2023/12/08 04:35:23;;;;;;;18.80;8.50;;;3.50;99.90;;;;;;5038723;28;20021;-55
2023/12/08 04:37:50;;;;;;;19.27;8.68;;;3.50;99.90;;;;;;5039076;28;20025;-53
2023/12/08 04:40:16;;;;;;;18.47;8.70;;;3.60;99.90;;;;;;5038962;28;20044;-55
2023/12/08 04:42:42;;;;;;;18.42;7.70;;;3.50;99.90;;;;;;5038616;28;20665;-56
2023/12/08 04:45:09;;;;;;;18.27;8.48;;;3.60;99.90;;;;;;5038965;28;20026;-55
2023/12/08 04:47:35;;;;;;;23.85;9.80;;;3.50;99.90;;;;;;5038998;28;20475;-57
2023/12/08 04:50:02;;;;;;;15.70;7.65;;;3.50;99.90;;;;;;5038562;28;20098;-61
2023/12/08 04:52:28;;;;;;;21.38;8.88;;;3.60;99.90;;;;;;5038077;28;20479;-55
2023/12/08 04:54:53;;;;;;;20.88;8.10;;;3.60;99.90;;;;;;5038915;28;20045;-54
2023/12/08 04:57:19;;;;;;;19.75;8.13;;;3.60;99.90;;;;;;5038996;28;20494;-56
2023/12/08 04:59:45;;;;;;;21.25;8.88;;;3.70;99.90;;;;;;5039119;28;20732;-57
2023/12/08 05:02:10;;;;;;;17.38;9.20;;;3.80;99.90;;;;;;5038907;28;20021;-53
2023/12/08 05:04:36;;;;;;;17.58;8.15;;;3.80;99.90;;;;;;5038894;28;20112;-55
2023/12/08 05:07:03;;;;;;;18.95;9.07;;;3.70;99.90;;;;;;5038431;28;20026;-55
2023/12/08 05:09:29;;;;;;;21.90;9.48;;;3.80;99.90;;;;;;5038825;28;20026;-56
2023/12/08 05:11:54;;;;;;;20.40;9.00;;;3.80;99.90;;;;;;5038267;28;20048;-55
2023/12/08 05:14:20;;;;;;;19.88;8.45;;;3.80;99.90;;;;;;5038618;28;20494;-57
2023/12/08 05:16:46;;;;;;;24.23;9.85;;;3.80;99.90;;;;;;5038250;28;20045;-56
2023/12/08 05:19:11;;;;;;;20.15;8.85;;;3.80;99.90;;;;;;5038761;28;20041;-56
2023/12/08 05:21:38;;;;;;;17.40;8.13;;;3.90;99.90;;;;;;5038689;28;20045;-55
2023/12/08 05:24:04;;;;;;;18.95;9.25;;;3.90;99.90;;;;;;5038718;28;20025;-56
2023/12/08 05:26:31;;;;;;;22.13;8.38;;;3.80;99.90;;;;;;5038713;28;20395;-56
2023/12/08 05:28:57;;;;;;;17.23;7.85;;;3.80;99.90;;;;;;5037428;28;20479;-56
2023/12/08 05:31:23;;;;;;;22.23;9.80;;;3.80;99.90;;;;;;5038485;28;20037;-54
2023/12/08 05:33:48;;;;;;;22.70;8.60;;;3.80;99.90;;;;;;5038830;28;20026;-50
2023/12/08 05:36:14;;;;;;;21.02;8.35;;;3.90;99.90;;;;;;5034204;28;20033;-56
2023/12/08 05:38:40;;;;;;;23.58;9.02;;;3.90;99.90;;;;;;5035407;28;20021;-55
2023/12/08 05:41:07;;;;;;;20.42;8.43;;;3.80;99.90;;;;;;5035218;28;20029;-52
2023/12/08 05:43:33;;;;;;;18.17;8.35;;;3.80;99.90;;;;;;5035617;28;20441;-56
2023/12/08 05:45:58;;;;;;;18.08;8.15;;;3.90;99.90;;;;;;5034035;28;20108;-54
2023/12/08 05:48:24;;;;;;;16.40;8.57;;;4.00;99.90;;;;;;5030427;28;20041;-57
2023/12/08 05:50:50;;;;;;;20.25;8.45;;;3.90;99.90;;;;;;5035147;28;20021;-57
2023/12/08 05:53:15;;;;;;;20.58;9.02;;;3.90;99.90;;;;;;5035022;28;20021;-62
2023/12/08 05:55:41;;;;;;;18.55;8.48;;;3.90;99.90;;;;;;5035135;28;20025;-56
2023/12/08 05:58:07;;;;;;;18.27;8.32;;;4.00;99.90;;;;;;5034902;28;20080;-58
2023/12/08 06:00:33;;;;;;;16.35;8.52;;;4.00;99.90;;;;;;5034834;28;20022;-56
2023/12/08 06:02:59;;;;;;;17.23;8.07;;;4.00;99.90;;;;;;5035050;28;20464;-56
2023/12/08 06:05:42;;;;;;;18.45;9.05;;;4.00;99.90;;;;;;5038910;28;20022;-57
2023/12/08 06:08:29;;;;;;;20.38;9.25;;;4.00;99.90;;;;;;5034715;28;20062;-57
2023/12/08 06:10:54;;;;;;;18.27;9.00;;;4.00;99.90;;;;;;5020620;28;20471;-56
2023/12/08 06:13:20;;;;;;;21.30;9.70;;;4.10;99.90;;;;;;5035148;28;20014;-54
2023/12/08 06:15:46;;;;;;;23.15;8.13;;;4.10;99.90;;;;;;5034709;28;20104;-56
2023/12/08 06:18:11;;;;;;;17.95;8.30;;;4.10;99.90;;;;;;5033892;28;20100;-57
2023/12/08 06:20:37;;;;;;;23.17;8.48;;;4.10;99.90;;;;;;5034911;28;20017;-54
2023/12/08 06:23:03;;;;;;;18.77;8.90;;;4.10;99.90;;;;;;5034254;28;20100;-56
2023/12/08 06:25:28;;;;;;;23.27;8.90;;;4.10;99.90;;;;;;5034620;28;20419;-57
2023/12/08 06:27:54;;;;;;;16.13;8.52;;;4.10;99.90;;;;;;5034370;28;20449;-58
2023/12/08 06:30:20;;;;;;;20.45;8.80;;;4.10;99.90;;;;;;5034532;28;20419;-54
2023/12/08 06:32:46;;;;;;;20.65;9.77;;;4.10;99.90;;;;;;5034341;28;20026;-57
2023/12/08 06:35:11;;;;;;;16.92;8.88;;;4.10;99.90;;;;;;5033016;28;20083;-55
2023/12/08 06:37:37;;;;;;;19.05;8.85;;;4.10;99.90;;;;;;5033775;28;20030;-56
2023/12/08 06:40:03;;;;;;;17.65;7.95;;;4.20;99.90;;;;;;5034484;28;20024;-54
2023/12/08 06:42:29;;;;;;;22.48;9.70;;;4.20;99.90;;;;;;5033021;28;20032;-55
2023/12/08 06:44:55;;;;;;;20.67;9.32;;;4.30;99.90;;;;;;5032322;28;20323;-57
2023/12/08 06:47:21;;;;;;;17.92;8.55;;;4.30;99.90;;;;;;5033743;28;20044;-56
2023/12/08 06:49:46;;;;;;;20.40;9.32;;;4.20;99.90;;;;;;5029650;28;20048;-56
2023/12/08 06:52:12;;;;;;;18.95;9.00;;;4.30;99.90;;;;;;5033735;28;20026;-57
2023/12/08 06:54:37;;;;;;;23.20;9.07;;;4.20;99.90;;;;;;5033883;28;20029;-58
2023/12/08 06:57:03;;;;;;;19.00;7.97;;;4.20;99.90;;;;;;5032139;28;20026;-57
2023/12/08 06:59:29;;;;;;;28.23;9.35;;;4.20;99.90;;;;;;5032371;28;20032;-57
2023/12/08 07:01:55;;;;;;;18.38;8.43;;;4.30;99.90;;;;;;5033821;28;20021;-65
2023/12/08 07:04:20;;;;;;;16.23;8.15;;;4.20;99.90;;;;;;5033736;28;20029;-59
2023/12/08 07:06:46;;;;;;;21.73;8.75;;;4.20;99.90;;;;;;5033508;28;20030;-56
2023/12/08 07:09:12;;;;;;;22.15;9.10;;;4.30;99.90;;;;;;5033611;28;20036;-57
2023/12/08 07:11:38;;;;;;;17.73;8.38;;;4.30;99.90;;;;;;5033515;28;20029;-54
2023/12/08 07:14:03;;;;;;;19.48;7.65;;;4.30;99.90;;;;;;5033018;28;20034;-55
2023/12/08 07:16:29;;;;;;;23.10;8.73;;;4.30;99.90;;;;;;5033238;28;20046;-54
2023/12/08 07:18:55;;;;;;;18.85;8.13;;;4.40;99.90;;;;;;5033602;28;20037;-57
2023/12/08 07:21:20;;;;;;;21.20;9.07;;;4.40;99.90;;;;;;5033746;28;20022;-57
2023/12/08 07:23:46;;;;;;;24.88;8.90;;;4.40;99.90;;;;;;5032673;28;20052;-56
2023/12/08 07:26:12;;;;;;;20.05;9.02;;;4.30;99.90;;;;;;5032824;28;20683;-58
2023/12/08 07:28:37;;;;;;;18.45;9.00;;;4.40;99.90;;;;;;5032696;28;20487;-56
2023/12/08 07:31:03;;;;;;;19.55;8.70;;;4.40;99.90;;;;;;5032827;28;20036;-57
2023/12/08 07:33:29;;;;;;;22.60;10.02;;;4.30;99.90;;;;;;5024777;28;20108;-57
2023/12/08 07:35:55;;;;;;;19.60;9.25;;;4.30;99.90;;;;;;5013768;28;20615;-57
2023/12/08 07:38:20;;;;;;;18.25;8.70;;;4.20;99.90;;;;;;5023338;28;20087;-56
2023/12/08 07:40:46;;;;;;;23.33;9.05;;;4.30;99.90;;;;;;5033252;28;20386;-57
2023/12/08 07:43:12;;;;;;;21.90;10.50;;;4.20;99.90;;;;;;5033239;28;20029;-56
2023/12/08 07:45:38;;;;;;;24.60;9.07;;;4.20;99.90;;;;;;5031849;28;20033;-57
2023/12/08 07:48:04;;;;;;;22.30;8.98;;;4.30;99.90;;;;;;5031439;28;20083;-57
2023/12/08 07:50:30;;;;;;;19.83;9.63;;;4.30;99.90;;;;;;5031913;28;20026;-57
2023/12/08 07:52:56;;;;;;;23.90;8.88;;;4.30;99.90;;;;;;5014977;28;20045;-56
2023/12/08 07:55:22;;;;;;;28.15;10.65;;;4.30;99.90;;;;;;5032904;28;20022;-54
2023/12/08 07:57:48;;;;;;;20.88;8.77;;;4.20;99.90;;;;;;5032236;28;20025;-57
2023/12/08 08:00:14;;;;;;;17.02;7.47;;;4.20;99.90;;;;;;5032659;28;20029;-57
2023/12/08 08:02:43;;;;;;;21.27;8.52;;;4.20;99.90;;;;;;5032854;28;20138;-52
2023/12/08 08:05:09;;;;;;;23.63;8.30;;;4.30;99.90;;;;;;5032287;28;20025;-55
2023/12/08 08:07:35;;;;;;;22.13;9.13;;;4.40;99.90;;;;;;5032713;28;20064;-57
2023/12/08 08:10:00;;;;;;;21.77;9.75;;;4.40;99.90;;;;;;5032170;28;20060;-57
2023/12/08 08:12:26;;;;;;;19.90;9.18;;;4.40;99.90;;;;;;5032950;28;20025;-58
2023/12/08 08:14:52;;;;;;;24.60;8.48;;;4.40;99.90;;;;;;5032265;28;20109;-55
2023/12/08 08:17:17;;;;;;;20.35;9.82;;;4.40;99.90;;;;;;5030323;28;20074;-56
2023/12/08 08:19:43;;;;;;;24.45;9.63;;;4.40;99.90;;;;;;5032396;28;20423;-56
2023/12/08 08:22:09;;;;;;;25.33;9.40;;;4.50;99.90;;;;;;5032447;28;20097;-57
2023/12/08 08:24:34;;;;;;;22.55;10.32;;;4.50;99.90;;;;;;5032554;28;20021;-57
2023/12/08 08:27:01;;;;;;;23.33;8.93;;;4.60;99.90;;;;;;5033153;28;20490;-56
2023/12/08 08:29:27;;;;;;;30.33;9.95;;;4.60;99.90;;;;;;5032725;28;20013;-56
2023/12/08 08:31:52;;;;;;;33.20;10.98;;;4.70;99.90;;;;;;5031570;28;20033;-58
2023/12/08 08:34:18;;;;;;;27.98;8.98;;;4.70;99.90;;;;;;5014788;28;20091;-54
2023/12/08 08:36:44;;;;;;;31.35;9.73;;;4.80;99.90;;;;;;5032162;28;20071;-56
2023/12/08 08:39:10;;;;;;;26.95;9.88;;;4.90;99.90;;;;;;5032486;28;20018;-55
2023/12/08 08:41:35;;;;;;;35.22;10.40;;;4.90;99.90;;;;;;5032378;28;20028;-56
2023/12/08 08:44:01;;;;;;;25.92;10.73;;;5.00;99.90;;;;;;5032472;28;20022;-55
2023/12/08 08:46:27;;;;;;;26.27;10.13;;;5.00;99.90;;;;;;5032043;28;20022;-57
2023/12/08 08:48:54;;;;;;;28.90;9.93;;;5.00;99.90;;;;;;5032544;28;20026;-57
2023/12/08 08:51:21;;;;;;;29.70;11.10;;;4.90;99.90;;;;;;5032443;28;20500;-56
2023/12/08 08:53:49;;;;;;;24.98;9.38;;;5.00;99.90;;;;;;5032169;28;20105;-55
2023/12/08 08:56:16;;;;;;;24.48;9.50;;;5.00;99.90;;;;;;5032508;28;20037;-57
2023/12/08 08:58:42;;;;;;;35.75;10.82;;;5.10;99.90;;;;;;5032626;28;20041;-56
2023/12/08 09:01:07;;;;;;;38.25;11.65;;;5.10;99.90;;;;;;5032294;28;20382;-56
2023/12/08 09:03:33;;;;;;;33.72;9.50;;;5.10;99.90;;;;;;5030827;28;20075;-57
2023/12/08 09:05:59;;;;;;;29.80;10.30;;;5.10;99.90;;;;;;5032476;28;20025;-56
2023/12/08 09:08:25;;;;;;;30.67;10.00;;;5.20;99.90;;;;;;5032267;28;20116;-57
2023/12/08 09:10:52;;;;;;;38.88;10.80;;;5.20;99.90;;;;;;5034774;28;20387;-56
2023/12/08 09:13:18;;;;;;;31.55;11.00;;;5.20;99.90;;;;;;5036092;28;20453;-57
2023/12/08 09:15:44;;;;;;;29.00;10.55;;;5.30;99.90;;;;;;5035839;28;20036;-54
2023/12/08 09:18:09;;;;;;;25.80;9.77;;;5.30;99.90;;;;;;5035505;28;20049;-56
2023/12/08 09:20:39;;;;;;;25.23;10.73;;;5.30;99.90;;;;;;5035617;28;20026;-55
2023/12/08 09:23:05;;;;;;;28.52;9.68;;;5.40;99.90;;;;;;5035661;28;20013;-57
2023/12/08 09:25:31;;;;;;;37.58;11.15;;;5.50;99.90;;;;;;5035775;28;20022;-54
2023/12/08 09:27:57;;;;;;;34.85;10.45;;;5.50;99.90;;;;;;5050717;28;20022;-55
2023/12/08 09:30:22;;;;;;;30.10;10.98;;;5.40;99.90;;;;;;5035622;28;20151;-57
2023/12/08 09:32:50;;;;;;;32.22;11.77;;;5.50;99.90;;;;;;5035742;28;20070;-57
2023/12/08 09:35:17;;;;;;;27.80;10.75;;;5.50;99.90;;;;;;5035470;28;20541;-57
2023/12/08 09:37:43;;;;;;;33.50;11.43;;;5.50;99.90;;;;;;5035200;28;20029;-55
2023/12/08 09:40:11;;;;;;;35.70;11.38;;;5.60;99.90;;;;;;5035423;28;20483;-55
2023/12/08 09:42:52;;;;;;;32.42;9.82;;;5.60;99.90;;;;;;5035346;28;20471;-58
2023/12/08 09:45:18;;;;;;;31.77;9.90;;;5.60;99.90;;;;;;5035227;28;20021;-57
2023/12/08 09:47:46;;;;;;;32.53;10.98;;;5.60;99.90;;;;;;5035176;28;20519;-57
2023/12/08 09:50:12;;;;;;;;;;;5.50;99.90;;;;;;5034588;28;20112;-57
2023/12/08 09:52:39;;;;;;;35.13;10.77;;;5.60;99.90;;;;;;5035331;28;19909;-51
2023/12/08 09:55:06;;;;;;;33.78;11.50;;;5.60;99.90;;;;;;5033529;28;20025;-63
2023/12/08 09:57:34;;;;;;;35.40;10.73;;;5.60;99.90;;;;;;5035035;28;20032;-55
2023/12/08 10:00:15;;;;;;;32.97;11.63;;;5.60;99.90;;;;;;5035103;28;20509;-56
2023/12/08 10:02:41;;;;;;;30.60;12.52;;;5.60;99.90;;;;;;5034970;28;20039;-58
2023/12/08 10:05:10;;;;;;;31.58;10.55;;;5.70;99.90;;;;;;5033659;28;20487;-57
2023/12/08 10:07:38;;;;;;;32.42;11.02;;;5.70;99.90;;;;;;5034921;28;20037;-56
2023/12/08 10:10:05;;;;;;;31.23;12.13;;;5.90;99.90;;;;;;5034708;28;20555;-56
2023/12/08 10:12:30;;;;;;;40.40;12.02;;;5.90;99.90;;;;;;5034645;28;20030;-54
2023/12/08 10:14:58;;;;;;;38.08;12.23;;;6.00;99.90;;;;;;5034723;28;20505;-54
2023/12/08 10:17:24;;;;;;;41.30;12.18;;;6.10;99.90;;;;;;5034463;28;20046;-53
2023/12/08 10:19:53;;;;;;;35.78;11.43;;;6.10;99.90;;;;;;5034597;28;20494;-57
2023/12/08 10:22:20;;;;;;;32.50;12.93;;;6.20;99.90;;;;;;5034030;28;20021;-57
2023/12/08 10:24:46;;;;;;;44.08;13.10;;;6.20;99.90;;;;;;5034558;28;20021;-57
2023/12/08 10:27:11;;;;;;;43.33;12.15;;;6.20;99.90;;;;;;5034417;28;20475;-57
2023/12/08 10:29:37;;;;;;;39.85;11.38;;;6.20;99.90;;;;;;5034526;28;20025;-56
2023/12/08 10:32:04;;;;;;;31.70;11.40;;;6.20;99.90;;;;;;5034248;28;20025;-56
2023/12/08 10:34:31;;;;;;;35.35;11.90;;;6.30;99.90;;;;;;5034139;28;20033;-56
2023/12/08 10:36:57;;;;;;;31.52;11.65;;;6.30;99.90;;;;;;5034041;28;20033;-57
2023/12/08 10:39:24;;;;;;;50.38;11.75;;;6.30;99.90;;;;;;5034374;28;20583;-50
2023/12/08 10:41:53;;;;;;;39.22;12.23;;;6.30;99.90;;;;;;5034206;28;20029;-49
2023/12/08 10:44:22;;;;;;;36.85;12.15;;;6.40;99.90;;;;;;5034140;28;20044;-48
2023/12/08 10:46:48;;;;;;;30.60;11.70;;;6.40;99.90;;;;;;5032947;28;20113;-47
2023/12/08 10:49:21;;;;;;;48.38;12.55;;;6.40;99.90;;;;;;5034504;28;20021;-44
2023/12/08 10:51:48;;;;;;;36.92;11.50;;;6.40;99.90;;;;;;5034139;28;20526;-45
2023/12/08 10:54:17;;;;;;;63.35;15.35;;;6.50;99.90;;;;;;5034161;28;20071;-46
2023/12/08 10:56:48;;;;;;;41.83;13.02;;;6.60;99.90;;;;;;5034004;28;20056;-48
2023/12/08 10:59:25;;;;;;;31.75;12.48;;;6.60;99.90;;;;;;5033999;28;20026;-47
2023/12/08 11:01:52;;;;;;;30.17;11.55;;;6.70;99.90;;;;;;5034148;28;20033;-46
2023/12/08 11:04:22;;;;;;;45.35;12.88;;;6.70;99.90;;;;;;5034199;28;20025;-46
2023/12/08 11:07:04;;;;;;;39.00;12.23;;;6.80;99.90;;;;;;5033815;28;20376;-48
2023/12/08 11:09:37;;;;;;;49.88;13.35;;;6.80;99.90;;;;;;5033849;28;20028;-50
2023/12/08 11:12:06;;;;;;;39.53;12.15;;;6.90;99.90;;;;;;5033557;28;20029;-52
2023/12/08 11:14:48;;;;;;;29.77;12.07;;;6.90;99.90;;;;;;5033595;28;20546;-49
2023/12/08 11:17:37;;;;;;;55.08;13.73;;;7.00;99.90;;;;;;5033473;28;20518;-48
2023/12/08 11:20:05;;;;;;;33.63;12.30;;;7.00;99.90;;;;;;5033565;28;20052;-45
2023/12/08 11:22:35;;;;;;;40.00;12.25;;;7.00;99.90;;;;;;5033915;28;20501;-45
2023/12/08 11:25:09;;;;;;;35.88;11.25;;;7.00;99.90;;;;;;5033557;28;20096;-51
2023/12/08 11:27:53;;;;;;;39.63;12.57;;;7.10;99.90;;;;;;5033037;28;20146;-48
2023/12/08 11:30:29;;;;;;;42.95;12.18;;;7.20;99.90;;;;;;5033512;28;20029;-47
2023/12/08 11:33:17;;;;;;;45.55;13.45;;;7.20;99.90;;;;;;5032590;28;20030;-45
2023/12/08 11:35:48;;;;;;;;;;;7.30;99.90;;;;;;5033650;28;20501;-48
2023/12/08 11:38:28;;;;;;;43.08;12.75;;;7.30;99.90;;;;;;5033179;28;20369;-50
2023/12/08 11:40:54;;;;;;;37.45;13.90;;;7.40;99.90;;;;;;5033251;28;20030;-48
2023/12/08 11:43:20;;;;;;;40.03;13.63;;;7.40;99.90;;;;;;5032926;28;20063;-48
2023/12/08 11:45:49;;;;;;;51.80;15.25;;;7.50;99.90;;;;;;5031932;28;20114;-49
2023/12/08 11:48:15;;;;;;;39.83;12.30;;;7.50;99.90;;;;;;5031529;28;20498;-48
2023/12/08 11:50:41;;;;;;;46.60;11.20;;;7.50;99.90;;;;;;5031740;28;20021;-47
2023/12/08 11:53:06;;;;;;;35.50;12.43;;;7.50;99.90;;;;;;5032734;28;20079;-57
2023/12/08 11:55:32;;;;;;;52.00;13.27;;;7.60;99.90;;;;;;5032962;28;20014;-49
2023/12/08 11:58:07;;;;;;;45.40;13.25;;;7.60;99.90;;;;;;5032720;28;20057;-48
2023/12/08 12:00:38;;;;;;;54.10;14.85;;;7.70;99.90;;;;;;5032707;28;20048;-48
2023/12/08 12:03:06;;;;;;;43.45;14.23;;;7.70;99.90;;;;;;5032399;28;20072;-46
2023/12/08 12:05:31;;;;;;;56.55;13.88;;;7.70;99.90;;;;;;5031530;28;20041;-46
2023/12/08 12:07:58;;;;;;;35.63;11.88;;;7.80;99.90;;;;;;5032541;28;20057;-49
2023/12/08 12:10:28;;;;;;;45.42;11.13;;;7.90;99.90;;;;;;5032388;28;20029;-49
2023/12/08 12:13:03;;;;;;;37.78;12.30;;;8.10;99.90;;;;;;5032795;28;20033;-46
2023/12/08 12:15:30;;;;;;;40.30;11.43;;;8.10;99.90;;;;;;5032661;28;20116;-48
2023/12/08 12:17:57;;;;;;;33.70;12.10;;;8.10;99.90;;;;;;5032403;28;20115;-51
2023/12/08 12:20:23;;;;;;;29.53;10.83;;;8.20;99.90;;;;;;5032770;28;20452;-49
2023/12/08 12:22:48;;;;;;;31.88;9.80;;;8.20;99.90;;;;;;5032803;28;20018;-49
2023/12/08 12:25:14;;;;;;;32.55;11.77;;;8.20;99.90;;;;;;5032552;28;20033;-54
2023/12/08 12:27:41;;;;;;;41.13;12.82;;;8.20;99.90;;;;;;5032688;28;20032;-65
2023/12/08 12:30:08;;;;;;;36.67;10.93;;;8.20;99.90;;;;;;5032827;28;20027;-52
2023/12/08 12:32:34;;;;;;;29.08;9.73;;;8.30;99.90;;;;;;5032575;28;20389;-57
2023/12/08 12:35:01;;;;;;;29.15;9.25;;;8.30;99.90;;;;;;5032398;28;20097;-58
2023/12/08 12:37:26;;;;;;;20.05;7.40;;;8.40;99.90;;;;;;5032593;28;20478;-55
2023/12/08 12:39:52;;;;;;;37.85;11.10;;;8.30;99.90;;;;;;5032634;28;20373;-57
2023/12/08 12:42:18;;;;;;;38.38;10.25;;;8.40;99.90;;;;;;5032713;28;20348;-56
2023/12/08 12:44:46;;;;;;;33.13;9.55;;;8.30;99.90;;;;;;5049135;28;20018;-61